• Join FlightAware (Why Join?)
  • Login
  • US Flag 
11:31AM EDT


 

Airport Tracker/Info


-or-


 

Live Flight TrackerFlight Track Log ✈ DAL6140 ✈ 15-Apr-2013 ✈ CYUL - KLGA

Flight Track Log - Related Links

Times and Time Zones

All times are in EDT time to prevent confusion due to time zone crossing. See the DAL6140 flight status page for this flight to view local times or setup timezone preferences in your user account.

Time Position Orientation Groundspeed Altitude Reporting Facility
EDT Latitude Longitude Course Direction KTS MPH feet Rate Location/Type
05:43PM 45.4667 -73.7000 189° South 150 173 1,500  Level Montreal Center
05:44PM 45.5000 -73.6500 46° Northeast 200 230 4,200 2,460 Climbing Montreal Center
05:45PM 45.4667 -73.5500 115° Southeast 270 311 6,500 2,520 Climbing Montreal Center
05:46PM 45.4167 -73.4833 137° Southeast 280 322 9,300 2,700 Climbing Montreal Center
05:47PM 45.3500 -73.4167 145° Southeast 300 345 12,000 2,220 Climbing Montreal Center
05:48PM 45.2667 -73.4667 203° Southwest 300 345 13,800 1,560 Climbing Montreal Center
05:49PM 44.9284 -74.0880 189° South  Level FlightAware Approximate
05:49PM 45.2000 -73.5500 221° Southwest 330 380 15,200  Level Montreal Center
05:50PM 45.1167 -73.6500 220° Southwest 350 403 16,700 1,320 Climbing Montreal Center
05:51PM 45.0333 -73.7167 209° Southwest 360 414 17,900 1,320 Climbing Montreal Center
05:52PM 44.9333 -73.7500 193° South 380 437 19,400 1,440 Climbing Montreal Center
05:53PM 44.8167 -73.7500 180° South 400 460 20,800 1,380 Climbing Montreal Center
05:54PM 44.7167 -73.7500 180° South 410 472 22,200 1,500 Climbing Montreal Center
05:55PM 44.6000 -73.7667 186° South 410 472 23,800 1,440 Climbing Montreal Center
05:56PM 44.5642 -73.7628 176° South 411 473 24,300 1,260 Climbing Boston Center
05:57PM 44.4453 -73.7661 181° South 416 479 25,700 840 Climbing Boston Center
05:58PM 44.3308 -73.7722 182° South 422 486 26,000 120 Climbing Boston Center
05:59PM 44.1661 -73.7772 181° South 442 509 26,000  Level Boston Center
06:00PM 44.0411 -73.7772 180° South 456 525 26,000  Level Boston Center
06:01PM 43.8867 -73.7797 181° South 456 525 26,000  Level Boston Center
06:02PM 43.7597 -73.7825 181° South 461 531 26,000  Level Boston Center
06:03PM 43.6431 -73.7828 180° South 461 531 26,000  Level Boston Center
06:04PM 43.5136 -73.7886 182° South 461 531 26,000  Level Boston Center
06:05PM 43.3739 -73.7911 181° South 461 531 26,000  Level Boston Center
06:06PM 43.2469 -73.7939 181° South 461 531 26,000  Level Boston Center
06:07PM 43.1156 -73.7969 181° South 461 531 26,000  Level Boston Center
06:08PM 42.9861 -73.8025 182° South 461 531 26,000 -540 Level Boston Center
06:09PM 42.8550 -73.8053 181° South 461 531 25,000 -1,020 Descending Boston Center
06:10PM 42.7464 -73.8056 180° South 461 531 24,000 -960 Descending Boston Center
06:11PM 42.6197 -73.7831 173° South 454 522 23,200 -1,200 Descending Boston Center
06:12PM 42.4992 -73.7553 170° South 454 522 21,600 -1,620 Descending Boston Center
06:13PM 42.3783 -73.7442 176° South 449 517 20,000 -1,620 Descending Boston Center
06:14PM 42.2492 -73.7472 181° South 434 499 18,500 -1,020 Descending Boston Center
06:15PM 42.1344 -73.7531 182° South 422 486 18,000 -300 Descending Boston Center
06:16PM 42.0217 -73.7592 182° South 422 486 18,000 -60 Level Boston Center
06:17PM 41.9153 -73.7653 182° South 422 486 17,900 -720 Descending Boston Center
06:18PM 41.7964 -73.7739 183° South 408 470 16,600 -1,320 Descending Boston Center
06:19PM 41.6881 -73.7800 182° South 401 461 15,300 -1,320 Descending Boston Center
06:20PM 41.5839 -73.7861 183° South 383 441 14,000 -1,500 Descending Boston Center
06:21PM 41.5000 -73.7833 179° South 338 389 12,500 -1,920 Descending New York TRACON
06:22PM 41.4000 -73.7833 180° South 307 353 10,400 -1,980 Descending New York TRACON
06:23PM 41.3333 -73.7500 159° South 270 311 8,600 -1,920 Descending New York TRACON
06:24PM 41.2833 -73.7000 143° Southeast 266 306 6,600 -1,980 Descending New York TRACON
06:25PM 41.2167 -73.6667 159° South 265 305 4,700 -1,320 Descending New York TRACON
06:26PM 41.1500 -73.6500 169° South 248 285 4,000 -360 Descending New York TRACON
06:27PM 41.0667 -73.6500 180° South 252 290 4,000  Level New York TRACON
06:28PM 41.0167 -73.6833 207° Southwest 249 287 4,000 -480 Level New York TRACON
06:29PM 40.9500 -73.7333 210° Southwest 220 253 3,100 -540 Descending New York TRACON
06:30PM 40.9167 -73.7667 217° Southwest 177 204 3,000 -540 Descending New York TRACON
06:31PM 40.8667 -73.8000 207° Southwest 178 205 2,100 -840 Descending New York TRACON
06:32PM 40.8333 -73.8333 217° Southwest 129 148 1,400 -720 Descending New York TRACON